Time;durP1;ratioP1;P1;durP2;ratioP2;P2;SDS_P1;SDS_P2;PMS_P1;PMS_P2;Temp;Humidity;BMP_temperature;BMP_pressure;BME280_temperature;BME280_humidity;BME280_pressure;Samples;Min_cycle;Max_cycle;Signal;HPM_P1;HPM_P2
2022/05/18 00:01:18;;;;;;;12.65;5.95;;;16.40;99.90;;;;;;6159580;23;20386;-86
2022/05/18 00:03:46;;;;;;;13.18;5.75;;;16.40;99.90;;;;;;6184420;23;20326;-86
2022/05/18 00:06:12;;;;;;;10.10;5.30;;;16.40;99.90;;;;;;6185307;23;20045;-86
2022/05/18 00:08:37;;;;;;;12.35;5.80;;;16.30;99.90;;;;;;6158912;23;20013;-86
2022/05/18 00:11:13;;;;;;;13.80;5.72;;;16.30;99.90;;;;;;6183912;23;20092;-86
2022/05/18 00:13:40;;;;;;;11.43;5.57;;;16.30;99.90;;;;;;6158339;23;20020;-86
2022/05/18 00:16:06;;;;;;;11.27;5.72;;;16.20;99.90;;;;;;6159105;23;20013;-86
2022/05/18 00:18:31;;;;;;;13.23;6.20;;;16.20;99.90;;;;;;6157824;23;20108;-85
2022/05/18 00:20:59;;;;;;;12.13;5.70;;;16.20;99.90;;;;;;6184671;23;20017;-86
2022/05/18 00:23:24;;;;;;;14.40;5.97;;;16.10;99.90;;;;;;6158637;23;20025;-86
2022/05/18 00:25:50;;;;;;;11.98;6.10;;;16.10;99.90;;;;;;6183720;23;20144;-86
2022/05/18 00:28:15;;;;;;;12.20;6.10;;;16.10;99.90;;;;;;6159068;23;20028;-85
2022/05/18 00:30:41;;;;;;;11.68;5.90;;;16.00;99.90;;;;;;6184159;23;20099;-86
2022/05/18 00:33:09;;;;;;;12.85;6.40;;;16.00;99.90;;;;;;6184686;23;20091;-86
2022/05/18 00:35:37;;;;;;;12.10;6.05;;;16.00;99.90;;;;;;6185267;23;20060;-86
2022/05/18 00:38:04;;;;;;;14.65;6.43;;;15.90;99.90;;;;;;6157306;23;20017;-85
2022/05/18 00:40:30;;;;;;;14.15;6.70;;;15.90;99.90;;;;;;6184826;23;20020;-86
2022/05/18 00:42:55;;;;;;;12.48;6.20;;;15.90;99.90;;;;;;6158743;23;20017;-86
2022/05/18 00:45:21;;;;;;;13.15;6.30;;;15.90;99.90;;;;;;6157413;23;20017;-86
2022/05/18 00:47:47;;;;;;;14.32;6.15;;;15.90;99.90;;;;;;6158938;23;20015;-86
2022/05/18 00:50:22;;;;;;;11.73;5.97;;;15.80;99.90;;;;;;6158757;23;20021;-86
2022/05/18 00:53:05;;;;;;;11.82;5.90;;;15.80;99.90;;;;;;6157622;23;20017;-86
2022/05/18 00:55:34;;;;;;;12.98;5.78;;;15.80;99.90;;;;;;6185856;23;20080;-86
2022/05/18 00:58:12;;;;;;;11.55;6.03;;;15.70;99.90;;;;;;6158529;23;20055;-86
2022/05/18 01:00:39;;;;;;;11.77;6.55;;;15.70;99.90;;;;;;6184707;23;20013;-86
2022/05/18 01:03:17;;;;;;;13.98;6.20;;;15.70;99.90;;;;;;6158977;23;20021;-86
2022/05/18 01:05:49;;;;;;;13.48;6.47;;;15.60;99.90;;;;;;6185729;23;20334;-86
2022/05/18 01:08:20;;;;;;;14.25;6.38;;;15.60;99.90;;;;;;6158355;23;20028;-86
2022/05/18 01:10:46;;;;;;;12.95;6.20;;;15.60;99.90;;;;;;6185370;23;20079;-86
2022/05/18 01:13:12;;;;;;;11.35;5.90;;;15.50;99.90;;;;;;6158672;23;20005;-86
2022/05/18 01:15:38;;;;;;;12.18;6.20;;;15.50;99.90;;;;;;6183856;23;20013;-86
2022/05/18 01:18:04;;;;;;;12.68;6.18;;;15.50;99.90;;;;;;6185039;23;20047;-87
2022/05/18 01:20:34;;;;;;;11.23;6.07;;;15.50;99.90;;;;;;6157518;23;20108;-85
2022/05/18 01:23:38;;;;;;;11.77;6.20;;;15.40;99.90;;;;;;6157918;23;20044;-86
2022/05/18 01:26:18;;;;;;;12.32;6.40;;;15.40;99.90;;;;;;6158335;23;20335;-86
2022/05/18 01:28:58;;;;;;;12.70;6.30;;;15.30;99.90;;;;;;6183474;23;20017;-86
2022/05/18 01:31:51;;;;;;;15.88;6.63;;;15.40;99.90;;;;;;6184458;23;20017;-86
2022/05/18 01:34:21;;;;;;;11.63;6.50;;;15.40;99.90;;;;;;6159495;23;20032;-85
2022/05/18 01:36:47;;;;;;;12.00;6.10;;;15.30;99.90;;;;;;6186001;23;20017;-86
2022/05/18 01:39:38;;;;;;;13.32;6.03;;;15.40;99.90;;;;;;6159756;23;20095;-86
2022/05/18 01:42:23;;;;;;;14.30;6.50;;;15.40;99.90;;;;;;6139579;23;20039;-86
2022/05/18 01:44:48;;;;;;;13.00;6.10;;;15.30;99.90;;;;;;6158972;23;20430;-86
2022/05/18 01:47:14;;;;;;;13.25;6.25;;;15.30;99.90;;;;;;6186485;23;20017;-86
2022/05/18 01:49:42;;;;;;;13.07;6.05;;;15.30;99.90;;;;;;6185132;23;20017;-86
2022/05/18 01:52:10;;;;;;;12.75;6.30;;;15.30;99.90;;;;;;6159838;23;20052;-86
2022/05/18 01:54:41;;;;;;;14.57;6.43;;;15.20;99.90;;;;;;6186364;23;20013;-86
2022/05/18 01:57:07;;;;;;;13.02;6.35;;;15.20;99.90;;;;;;6158759;23;20051;-86
2022/05/18 01:59:33;;;;;;;12.15;6.25;;;15.10;99.90;;;;;;6159639;23;20349;-86
2022/05/18 02:01:59;;;;;;;11.93;6.10;;;15.10;99.90;;;;;;6158636;23;20067;-86
2022/05/18 02:04:25;;;;;;;10.98;6.10;;;15.10;99.90;;;;;;6184306;23;20017;-86
2022/05/18 02:06:50;;;;;;;13.95;6.60;;;15.00;99.90;;;;;;6185155;23;20013;-86
2022/05/18 02:09:22;;;;;;;11.20;6.45;;;15.00;99.90;;;;;;6159397;23;20379;-86
2022/05/18 02:11:51;;;;;;;12.63;6.50;;;15.00;99.90;;;;;;6152875;23;20045;-85
2022/05/18 02:14:17;;;;;;;12.95;6.07;;;15.00;99.90;;;;;;6154806;23;20044;-86
2022/05/18 02:16:43;;;;;;;11.60;6.13;;;15.00;99.90;;;;;;6153147;23;20434;-86
2022/05/18 02:19:08;;;;;;;10.32;5.40;;;14.90;99.90;;;;;;6156080;23;20319;-86
2022/05/18 02:21:34;;;;;;;12.88;6.55;;;14.90;99.90;;;;;;6156061;23;20018;-86
2022/05/18 02:24:00;;;;;;;12.90;6.13;;;14.90;99.90;;;;;;6153315;23;20032;-86
2022/05/18 02:26:25;;;;;;;14.95;6.10;;;14.80;99.90;;;;;;6157483;23;20449;-86
2022/05/18 02:28:51;;;;;;;12.82;5.85;;;14.80;99.90;;;;;;6158885;23;20069;-86
2022/05/18 02:31:16;;;;;;;12.02;6.25;;;14.80;99.90;;;;;;6156210;23;20013;-86
2022/05/18 02:33:42;;;;;;;12.68;6.45;;;14.80;99.90;;;;;;6154156;23;20097;-86
2022/05/18 02:36:10;;;;;;;12.95;5.95;;;14.70;99.90;;;;;;6160165;23;20002;-86
2022/05/18 02:38:36;;;;;;;12.35;5.85;;;14.70;99.90;;;;;;6153710;23;20036;-86
2022/05/18 02:41:02;;;;;;;12.52;5.70;;;14.70;99.90;;;;;;6155858;23;20346;-86
2022/05/18 02:43:27;;;;;;;12.40;6.28;;;14.60;99.90;;;;;;6154443;23;20449;-86
2022/05/18 02:46:01;;;;;;;11.05;5.80;;;14.60;99.90;;;;;;6152640;23;20059;-86
2022/05/18 02:48:27;;;;;;;13.18;6.10;;;14.60;99.90;;;;;;6155959;23;20021;-85
2022/05/18 02:50:53;;;;;;;12.65;6.35;;;14.60;99.90;;;;;;6155506;23;20021;-86
2022/05/18 02:53:18;;;;;;;14.48;6.50;;;14.50;99.90;;;;;;6154320;23;20060;-86
2022/05/18 02:58:28;;;;;;;;;;;14.50;99.90;;;;;;6154613;23;20057;-86
2022/05/18 03:00:53;;;;;;;12.30;7.00;;;14.40;99.90;;;;;;6152637;23;19916;-86
2022/05/18 03:03:19;;;;;;;12.38;6.30;;;14.30;99.90;;;;;;6155987;23;20020;-85
2022/05/18 03:05:45;;;;;;;13.55;6.85;;;14.30;99.90;;;;;;6155609;23;20057;-86
2022/05/18 03:08:10;;;;;;;13.40;6.38;;;14.30;99.90;;;;;;6154656;23;20013;-86
2022/05/18 03:10:36;;;;;;;14.82;6.78;;;14.20;99.90;;;;;;6156094;23;20068;-86
2022/05/18 03:13:01;;;;;;;12.80;6.40;;;14.20;99.90;;;;;;6152914;23;20342;-86
2022/05/18 03:15:27;;;;;;;13.40;6.63;;;14.20;99.90;;;;;;6156636;23;20017;-86
2022/05/18 03:17:53;;;;;;;14.20;7.38;;;14.10;99.90;;;;;;6156586;23;20359;-86
2022/05/18 03:25:47;;;;;;;14.80;7.45;;;14.00;99.90;;;;;;6155235;23;20517;-86
2022/05/18 03:28:13;;;;;;;13.20;7.10;;;14.00;99.90;;;;;;6154961;23;20056;-86
2022/05/18 03:30:38;;;;;;;15.00;6.90;;;14.00;99.90;;;;;;6155444;23;20096;-86
2022/05/18 03:33:04;;;;;;;13.55;6.70;;;14.00;99.90;;;;;;6154388;23;20084;-86
2022/05/18 03:35:30;;;;;;;11.73;6.80;;;13.90;99.90;;;;;;6153987;23;20080;-86
2022/05/18 03:37:55;;;;;;;14.40;6.80;;;13.90;99.90;;;;;;6153957;23;20018;-86
2022/05/18 03:40:21;;;;;;;12.52;7.07;;;13.80;99.90;;;;;;6156097;23;20335;-86
2022/05/18 03:42:47;;;;;;;13.38;7.22;;;13.80;99.90;;;;;;6154647;23;20084;-86
2022/05/18 03:45:13;;;;;;;13.23;7.20;;;13.80;99.90;;;;;;6154177;23;20402;-87
2022/05/18 03:47:38;;;;;;;12.13;7.25;;;13.70;99.90;;;;;;6156044;23;20045;-86
2022/05/18 03:50:04;;;;;;;12.90;7.40;;;13.70;99.90;;;;;;6155003;23;20017;-86
2022/05/18 03:52:30;;;;;;;12.35;7.28;;;13.70;99.90;;;;;;6155092;23;20143;-86
2022/05/18 03:54:55;;;;;;;15.18;7.22;;;13.70;99.90;;;;;;6153399;23;20462;-86
2022/05/18 03:57:22;;;;;;;13.93;7.82;;;13.70;99.90;;;;;;6155284;23;20018;-86
2022/05/18 03:59:47;;;;;;;15.20;7.70;;;13.60;99.90;;;;;;6155744;23;20386;-86
2022/05/18 04:02:13;;;;;;;13.48;7.25;;;13.60;99.90;;;;;;6154736;23;20057;-86
2022/05/18 04:04:39;;;;;;;16.55;7.72;;;13.60;99.90;;;;;;6155476;23;20045;-86
2022/05/18 04:07:05;;;;;;;13.60;7.70;;;13.60;99.90;;;;;;6155414;23;20344;-86
2022/05/18 04:09:30;;;;;;;14.65;8.40;;;13.60;99.90;;;;;;6154159;23;20025;-86
2022/05/18 04:11:56;;;;;;;15.65;8.80;;;13.70;99.90;;;;;;6154218;23;20020;-86
2022/05/18 04:14:21;;;;;;;14.57;7.85;;;13.60;99.90;;;;;;6153698;23;20017;-86
2022/05/18 04:16:49;;;;;;;12.95;8.05;;;13.60;99.90;;;;;;6153179;23;20169;-86
2022/05/18 04:19:15;;;;;;;13.70;7.93;;;13.60;99.90;;;;;;6154613;23;20044;-86
2022/05/18 04:21:41;;;;;;;16.10;8.18;;;13.70;99.90;;;;;;6155581;23;20073;-86
2022/05/18 04:24:07;;;;;;;13.25;7.95;;;13.70;99.90;;;;;;6158919;23;20338;-86
2022/05/18 04:26:32;;;;;;;14.13;7.57;;;13.70;99.90;;;;;;6155932;23;20501;-87
2022/05/18 04:28:58;;;;;;;13.68;8.07;;;13.80;99.90;;;;;;6153639;23;20026;-86
2022/05/18 04:31:23;;;;;;;13.00;8.00;;;13.80;99.90;;;;;;6155114;23;20014;-86
2022/05/18 04:33:49;;;;;;;16.67;9.30;;;13.90;99.90;;;;;;6158019;23;20013;-86
2022/05/18 04:36:14;;;;;;;13.95;8.77;;;13.90;99.90;;;;;;6153773;23;20021;-86
2022/05/18 04:38:40;;;;;;;18.15;8.95;;;13.90;99.90;;;;;;6155535;23;20025;-86
2022/05/18 04:41:06;;;;;;;15.48;8.52;;;14.10;99.90;;;;;;6155852;23;20017;-86
2022/05/18 04:43:32;;;;;;;14.50;8.20;;;14.00;99.90;;;;;;6154474;23;20017;-86
2022/05/18 04:45:58;;;;;;;15.10;8.63;;;14.10;99.90;;;;;;6153977;23;20018;-86
2022/05/18 04:48:25;;;;;;;15.52;8.68;;;14.20;99.90;;;;;;6153369;23;20033;-86
2022/05/18 04:50:51;;;;;;;16.02;8.80;;;14.20;99.90;;;;;;6154769;23;20021;-86
2022/05/18 04:53:17;;;;;;;15.80;9.40;;;14.30;99.90;;;;;;6154450;23;20021;-88
2022/05/18 04:55:43;;;;;;;16.77;9.57;;;14.30;99.90;;;;;;6152771;23;20009;-87
2022/05/18 04:58:09;;;;;;;14.93;8.63;;;14.40;99.90;;;;;;6155181;23;20021;-86
2022/05/18 05:00:37;;;;;;;15.07;9.55;;;14.40;99.90;;;;;;6153737;23;20028;-86
2022/05/18 05:03:03;;;;;;;16.30;8.93;;;14.50;99.90;;;;;;6152509;23;20017;-86
2022/05/18 05:05:53;;;;;;;19.15;9.73;;;14.70;99.90;;;;;;6152221;23;20033;-88
2022/05/18 05:08:19;;;;;;;16.95;9.30;;;14.30;99.90;;;;;;6130446;23;20014;-86
2022/05/18 05:10:54;;;;;;;15.05;9.98;;;14.70;99.90;;;;;;6126543;23;20101;-89
2022/05/18 05:13:23;;;;;;;15.70;9.77;;;14.70;99.90;;;;;;6151339;23;20018;-88
2022/05/18 05:19:01;;;;;;;18.73;10.65;;;14.90;99.90;;;;;;6131972;23;20442;-90
2022/05/18 05:21:44;;;;;;;20.48;10.82;;;15.10;99.90;;;;;;6140608;23;20025;-89
2022/05/18 05:24:25;;;;;;;18.70;10.65;;;14.90;99.90;;;;;;6131074;23;20013;-89
2022/05/18 05:26:54;;;;;;;18.35;11.95;;;14.70;99.90;;;;;;6130904;23;20018;-88
2022/05/18 05:29:32;;;;;;;21.08;11.88;;;15.00;99.90;;;;;;6130883;23;20021;-88
2022/05/18 05:32:19;;;;;;;20.23;12.18;;;15.30;99.90;;;;;;6130368;23;20017;-87
2022/05/18 05:34:57;;;;;;;20.13;11.35;;;15.50;99.90;;;;;;6128779;23;20064;-88
2022/05/18 05:37:43;;;;;;;17.73;11.25;;;15.80;99.90;;;;;;6130552;23;20438;-88
2022/05/18 05:40:21;;;;;;;17.55;11.45;;;15.70;99.90;;;;;;6130329;23;20097;-88
2022/05/18 05:42:55;;;;;;;17.88;11.48;;;15.80;99.90;;;;;;6159801;23;20343;-88
2022/05/18 05:45:32;;;;;;;21.15;12.02;;;15.80;99.90;;;;;;6157243;23;20028;-87
2022/05/18 05:48:17;;;;;;;16.60;11.48;;;16.70;99.90;;;;;;6130086;23;20428;-87
2022/05/18 05:50:43;;;;;;;18.77;12.18;;;16.20;99.90;;;;;;6156828;23;20021;-88
2022/05/18 05:56:58;;;;;;;16.75;11.50;;;16.30;99.90;;;;;;6184628;23;20472;-89
2022/05/18 05:59:23;;;;;;;19.73;11.43;;;16.10;99.90;;;;;;6185731;23;20021;-88
2022/05/18 06:02:00;;;;;;;18.30;11.48;;;17.30;99.90;;;;;;6185172;23;20024;-88
2022/05/18 06:04:43;;;;;;;21.35;11.57;;;17.60;99.90;;;;;;6159887;23;20096;-87
2022/05/18 06:07:09;;;;;;;16.45;10.88;;;16.70;99.90;;;;;;6159308;23;20025;-89
2022/05/18 06:09:41;;;;;;;18.35;11.55;;;16.70;99.90;;;;;;6158274;23;20024;-89
2022/05/18 06:12:13;;;;;;;16.10;11.52;;;17.00;99.90;;;;;;6159199;23;20025;-87
2022/05/18 06:15:02;;;;;;;16.35;10.93;;;17.40;99.90;;;;;;6184978;23;20454;-86
2022/05/18 06:17:27;;;;;;;17.75;11.65;;;17.10;99.90;;;;;;6158646;23;20013;-87
2022/05/18 06:20:11;;;;;;;16.50;11.18;;;17.40;99.90;;;;;;6163045;23;20012;-91
2022/05/18 06:22:46;;;;;;;17.83;11.70;;;17.40;99.90;;;;;;6169351;23;20471;-93
2022/05/18 06:25:14;;;;;;;17.08;11.52;;;17.70;99.90;;;;;;6166153;23;20017;-94
2022/05/18 06:27:41;;;;;;;18.52;11.07;;;17.20;99.90;;;;;;6160207;23;20020;-87
2022/05/18 06:30:19;;;;;;;20.50;12.27;;;17.70;99.90;;;;;;6190288;23;20060;-90
2022/05/18 06:32:50;;;;;;;16.92;11.25;;;17.90;99.90;;;;;;6186364;23;20020;-89
2022/05/18 06:35:28;;;;;;;15.60;9.88;;;18.90;99.90;;;;;;6160773;23;20338;-89
2022/05/18 06:38:12;;;;;;;15.60;10.45;;;18.10;99.90;;;;;;6160856;23;20013;-94
2022/05/18 06:43:30;;;;;;;16.77;9.90;;;18.50;99.90;;;;;;6186218;23;20021;-87
2022/05/18 06:46:10;;;;;;;14.23;9.80;;;19.20;99.90;;;;;;6168543;23;20028;-95
2022/05/18 06:48:39;;;;;;;15.20;9.70;;;18.80;99.90;;;;;;6187455;23;20413;-91
2022/05/18 06:51:19;;;;;;;15.90;9.63;;;19.60;99.90;;;;;;6185936;23;20025;-90
2022/05/18 06:53:52;;;;;;;15.98;9.60;;;18.90;99.90;;;;;;6198536;23;20016;-90
2022/05/18 06:56:26;;;;;;;15.00;8.73;;;19.50;99.90;;;;;;6166476;23;20020;-92
2022/05/18 06:58:54;;;;;;;14.60;9.15;;;19.80;99.90;;;;;;6185156;23;20083;-92
2022/05/18 07:01:32;;;;;;;14.77;8.88;;;20.30;99.90;;;;;;6182991;23;20013;-91
2022/05/18 07:03:58;;;;;;;13.70;8.60;;;20.20;99.90;;;;;;6158181;23;20091;-91
2022/05/18 07:06:26;;;;;;;16.38;9.15;;;20.60;99.90;;;;;;6153176;23;20021;-86
2022/05/18 07:08:55;;;;;;;16.08;8.63;;;20.60;99.90;;;;;;6156329;23;20024;-87
2022/05/18 07:11:22;;;;;;;14.68;8.65;;;20.40;99.90;;;;;;6185300;23;20024;-87
2022/05/18 07:13:58;;;;;;;14.60;9.25;;;21.00;99.90;;;;;;6184454;23;20052;-90
2022/05/18 07:16:26;;;;;;;13.38;8.55;;;21.20;99.90;;;;;;6187047;23;20027;-95
2022/05/18 07:18:56;;;;;;;15.63;8.70;;;20.90;99.90;;;;;;6159040;23;20460;-88
2022/05/18 07:21:23;;;;;;;16.30;8.70;;;21.00;99.90;;;;;;6184784;23;20117;-89
2022/05/18 07:23:48;;;;;;;15.63;7.97;;;21.10;99.90;;;;;;6186793;23;20469;-94
2022/05/18 07:26:17;;;;;;;17.45;9.02;;;21.20;99.90;;;;;;6160021;23;20093;-87
2022/05/18 07:28:43;;;;;;;15.90;7.63;;;21.50;99.90;;;;;;6183907;23;20028;-87
2022/05/18 07:31:10;;;;;;;20.00;8.23;;;21.50;99.90;;;;;;6159080;23;20027;-87
2022/05/18 07:33:35;;;;;;;13.82;7.97;;;21.50;99.90;;;;;;6184353;23;20138;-86
2022/05/18 07:36:02;;;;;;;12.82;7.55;;;21.60;99.90;;;;;;6158413;23;20491;-86
2022/05/18 07:38:30;;;;;;;12.88;8.63;;;21.80;99.90;;;;;;6158692;23;20016;-86
2022/05/18 07:40:55;;;;;;;13.07;7.63;;;21.80;99.90;;;;;;6184112;23;20013;-87
2022/05/18 07:43:21;;;;;;;13.25;8.13;;;22.00;99.90;;;;;;6159038;23;20356;-87
2022/05/18 07:45:50;;;;;;;14.70;7.85;;;22.20;99.90;;;;;;6184683;23;20023;-86
2022/05/18 07:48:16;;;;;;;12.93;7.60;;;22.30;99.90;;;;;;6184600;23;20072;-86
2022/05/18 07:50:42;;;;;;;11.98;7.80;;;22.50;99.90;;;;;;6185053;23;20028;-87
2022/05/18 07:53:08;;;;;;;13.68;7.93;;;22.50;99.90;;;;;;6158597;23;20067;-86
2022/05/18 07:55:33;;;;;;;15.18;8.23;;;22.80;99.90;;;;;;6157254;23;20036;-86
2022/05/18 07:58:04;;;;;;;12.70;7.25;;;22.90;99.90;;;;;;6185816;23;20013;-86
2022/05/18 08:00:29;;;;;;;14.00;7.75;;;23.20;99.90;;;;;;6185388;23;20013;-85
2022/05/18 08:02:55;;;;;;;14.05;7.20;;;23.20;99.90;;;;;;6184112;23;20017;-85
2022/05/18 08:05:20;;;;;;;14.32;8.02;;;23.40;99.90;;;;;;6185730;23;20023;-84
2022/05/18 08:07:46;;;;;;;14.40;8.32;;;23.60;99.90;;;;;;6158640;23;20465;-85
2022/05/18 08:16:02;;;;;;;14.48;7.45;;;23.80;99.90;;;;;;6152073;23;20033;-84
2022/05/18 08:18:28;;;;;;;13.27;7.30;;;24.00;99.90;;;;;;6160658;23;20021;-84
2022/05/18 08:20:53;;;;;;;13.90;7.07;;;24.10;99.90;;;;;;6184947;23;20541;-84
2022/05/18 08:23:20;;;;;;;11.02;6.38;;;24.20;99.90;;;;;;6158159;23;20031;-84
2022/05/18 08:25:48;;;;;;;12.50;6.90;;;24.30;99.90;;;;;;6158143;23;20087;-84
2022/05/18 08:28:15;;;;;;;11.70;7.22;;;24.40;99.90;;;;;;6187026;23;20058;-85
2022/05/18 08:30:42;;;;;;;13.77;6.90;;;24.50;99.90;;;;;;6157967;23;20021;-84
2022/05/18 08:33:09;;;;;;;13.43;8.05;;;24.60;99.90;;;;;;6158596;23;20013;-84
2022/05/18 08:35:35;;;;;;;10.45;6.60;;;24.70;99.90;;;;;;6185233;23;20017;-84
2022/05/18 08:38:01;;;;;;;12.43;6.88;;;24.80;99.90;;;;;;6157052;23;20017;-84
2022/05/18 08:40:33;;;;;;;11.57;6.40;;;24.90;99.90;;;;;;6185752;23;20017;-85
2022/05/18 08:43:04;;;;;;;13.27;6.82;;;25.00;99.90;;;;;;6186026;23;20028;-85
2022/05/18 08:45:34;;;;;;;11.05;6.43;;;25.10;99.90;;;;;;6160516;23;20445;-85
2022/05/18 08:48:20;;;;;;;13.48;6.60;;;25.20;99.90;;;;;;6187021;23;20060;-84
2022/05/18 08:50:47;;;;;;;12.50;6.40;;;25.40;99.90;;;;;;6159246;23;20032;-84
2022/05/18 08:53:21;;;;;;;11.38;6.40;;;25.40;99.90;;;;;;6160475;23;20468;-84
2022/05/18 08:56:01;;;;;;;11.93;6.53;;;25.40;99.90;;;;;;6186628;23;20080;-84
2022/05/18 08:58:30;;;;;;;11.65;5.93;;;25.60;99.90;;;;;;6186263;23;20075;-84
2022/05/18 09:00:59;;;;;;;11.98;6.00;;;25.60;99.90;;;;;;6160139;23;20009;-84
2022/05/18 09:03:44;;;;;;;13.65;6.38;;;25.70;99.90;;;;;;6187012;23;20025;-84
2022/05/18 09:06:33;;;;;;;10.43;6.35;;;25.80;99.90;;;;;;6159416;23;20023;-84
2022/05/18 09:11:46;;;;;;;12.05;5.70;;;25.90;99.90;;;;;;6159372;23;20021;-85
2022/05/18 09:14:17;;;;;;;11.23;6.22;;;26.10;99.90;;;;;;6159281;23;20048;-84
2022/05/18 09:16:49;;;;;;;10.65;6.47;;;26.20;99.90;;;;;;6186536;23;20032;-85
2022/05/18 09:19:50;;;;;;;14.57;6.25;;;26.30;99.90;;;;;;6158849;23;20017;-85
2022/05/18 09:22:25;;;;;;;12.02;6.22;;;26.30;99.90;;;;;;6186935;23;20020;-85
2022/05/18 09:25:20;;;;;;;10.73;6.25;;;26.40;99.90;;;;;;6185904;23;20041;-85
2022/05/18 09:28:18;;;;;;;13.85;6.65;;;26.40;99.90;;;;;;6185897;23;20051;-85
2022/05/18 09:30:52;;;;;;;10.65;6.10;;;26.50;99.90;;;;;;6160007;23;20024;-85
2022/05/18 09:33:29;;;;;;;11.77;5.70;;;26.60;99.90;;;;;;6185983;23;20096;-86
2022/05/18 09:36:40;;;;;;;11.07;6.10;;;26.70;99.90;;;;;;6186849;23;20013;-86
2022/05/18 09:39:08;;;;;;;9.82;6.03;;;26.90;99.90;;;;;;6186573;23;20072;-85
2022/05/18 09:41:40;;;;;;;11.18;5.68;;;27.00;99.90;;;;;;6185602;23;20449;-87
2022/05/18 09:44:42;;;;;;;12.55;6.47;;;27.10;99.90;;;;;;6160253;23;20397;-85
2022/05/18 09:47:14;;;;;;;13.50;6.72;;;27.10;99.90;;;;;;6159503;23;20017;-85
2022/05/18 09:49:50;;;;;;;15.20;6.63;;;27.20;99.90;;;;;;6159637;23;20021;-85
2022/05/18 09:52:19;;;;;;;11.73;5.80;;;27.30;99.90;;;;;;6159852;23;20024;-84
2022/05/18 09:54:44;;;;;;;13.43;6.10;;;27.30;99.90;;;;;;6185279;23;20104;-86
2022/05/18 09:57:36;;;;;;;11.77;5.90;;;27.30;99.90;;;;;;6159607;23;20400;-84
2022/05/18 10:00:10;;;;;;;12.43;7.13;;;27.60;99.90;;;;;;6154898;23;20099;-84
2022/05/18 10:08:14;;;;;;;13.68;6.15;;;27.70;99.90;;;;;;6159010;23;20028;-86
2022/05/18 10:10:41;;;;;;;11.40;5.40;;;27.70;99.90;;;;;;6159591;23;20017;-87
2022/05/18 10:13:13;;;;;;;11.98;5.90;;;28.00;99.90;;;;;;6185950;23;20135;-89
2022/05/18 10:15:47;;;;;;;12.70;6.07;;;28.00;99.90;;;;;;6163314;23;20013;-85
2022/05/18 10:18:32;;;;;;;10.35;5.90;;;28.10;99.90;;;;;;6159959;23;20040;-85
2022/05/18 10:21:18;;;;;;;9.68;5.40;;;28.20;99.00;;;;;;6185980;23;20684;-85
2022/05/18 10:23:56;;;;;;;12.80;5.15;;;28.30;98.80;;;;;;6186313;23;20028;-85
2022/05/18 10:26:23;;;;;;;10.95;5.47;;;28.60;99.20;;;;;;6187498;23;20083;-87
2022/05/18 10:28:59;;;;;;;10.13;4.75;;;28.80;99.40;;;;;;6159429;23;20024;-86
2022/05/18 10:31:37;;;;;;;10.15;4.68;;;29.00;99.20;;;;;;6185889;23;20103;-86
2022/05/18 10:34:25;;;;;;;9.43;4.47;;;29.00;96.90;;;;;;6185456;23;20017;-84
2022/05/18 10:36:54;;;;;;;10.77;4.70;;;28.80;96.70;;;;;;6158528;23;20013;-86
2022/05/18 10:39:28;;;;;;;10.25;4.95;;;28.80;97.60;;;;;;6186035;23;20017;-87
2022/05/18 10:41:54;;;;;;;11.40;5.00;;;28.80;97.10;;;;;;6159054;23;20021;-87
2022/05/18 10:44:22;;;;;;;10.57;6.10;;;28.70;97.30;;;;;;6185111;23;20071;-86
2022/05/18 10:46:51;;;;;;;10.32;6.03;;;28.80;97.00;;;;;;6185778;23;20386;-86
2022/05/18 10:49:29;;;;;;;11.55;5.43;;;28.90;96.50;;;;;;6185774;23;20151;-87
2022/05/18 10:51:55;;;;;;;16.23;9.02;;;28.40;97.30;;;;;;6185027;23;20017;-88
2022/05/18 10:54:27;;;;;;;24.48;17.30;;;28.50;97.60;;;;;;6160592;23;20028;-89
2022/05/18 10:57:14;;;;;;;11.10;6.78;;;28.40;97.40;;;;;;6158806;23;20017;-86
2022/05/18 11:00:14;;;;;;;14.52;10.32;;;28.30;97.60;;;;;;6160279;23;20044;-89
2022/05/18 11:02:40;;;;;;;11.43;6.30;;;28.60;97.50;;;;;;6186300;23;20013;-86
2022/05/18 11:05:15;;;;;;;10.23;4.75;;;28.90;97.00;;;;;;6157590;23;20056;-87
2022/05/18 11:07:48;;;;;;;10.68;5.28;;;28.90;96.10;;;;;;6185124;23;20023;-86
2022/05/18 11:10:14;;;;;;;16.55;6.32;;;29.20;96.50;;;;;;6158643;23;20068;-87
2022/05/18 11:13:06;;;;;;;10.80;5.32;;;28.90;97.00;;;;;;6184546;23;20013;-85
2022/05/18 11:15:51;;;;;;;10.83;5.60;;;29.10;97.00;;;;;;6185117;23;20458;-85
2022/05/18 11:18:28;;;;;;;10.48;5.97;;;29.10;95.90;;;;;;6158039;23;20080;-88
2022/05/18 11:21:33;;;;;;;10.18;5.28;;;29.30;96.90;;;;;;6158656;23;20076;-86
2022/05/18 11:24:19;;;;;;;10.30;5.00;;;29.30;95.10;;;;;;6158009;23;20021;-85
2022/05/18 11:26:54;;;;;;;11.48;6.13;;;29.30;95.10;;;;;;6157026;23;20015;-87
2022/05/18 11:29:38;;;;;;;14.20;5.65;;;29.20;95.90;;;;;;6185385;23;20434;-88
2022/05/18 11:32:17;;;;;;;11.45;5.57;;;29.40;95.60;;;;;;6158089;23;20480;-87
2022/05/18 11:35:07;;;;;;;10.65;5.13;;;29.40;96.30;;;;;;6185251;23;20036;-87
2022/05/18 11:38:05;;;;;;;9.38;3.97;;;29.60;95.60;;;;;;6158688;23;20024;-87
2022/05/18 11:40:41;;;;;;;9.02;3.70;;;29.60;94.30;;;;;;6157448;23;20036;-88
2022/05/18 11:43:33;;;;;;;8.90;3.70;;;29.50;94.40;;;;;;6185211;23;20009;-87
2022/05/18 11:46:11;;;;;;;9.27;4.03;;;29.50;93.30;;;;;;6158439;23;20028;-87
2022/05/18 11:48:51;;;;;;;8.85;3.55;;;29.60;93.60;;;;;;6157843;23;20024;-88
2022/05/18 11:51:35;;;;;;;9.35;4.47;;;29.80;94.20;;;;;;6185427;23;20067;-89
2022/05/18 11:54:30;;;;;;;11.80;5.10;;;29.90;93.80;;;;;;6157171;23;20021;-87
2022/05/18 11:57:11;;;;;;;10.35;5.13;;;30.00;93.40;;;;;;6104770;23;20093;-87
2022/05/18 12:00:07;;;;;;;12.38;5.32;;;30.20;94.00;;;;;;6185739;23;20025;-89
2022/05/18 12:02:32;;;;;;;9.85;4.85;;;30.20;93.50;;;;;;6158148;23;20013;-89
2022/05/18 12:05:30;;;;;;;9.73;4.43;;;30.10;93.40;;;;;;6186438;23;20489;-87
2022/05/18 12:08:24;;;;;;;10.23;4.70;;;30.00;92.00;;;;;;6157118;23;20373;-87
2022/05/18 12:10:56;;;;;;;10.50;4.78;;;30.00;92.20;;;;;;6158332;23;20039;-88
2022/05/18 12:13:43;;;;;;;11.63;5.10;;;30.20;92.40;;;;;;6190277;23;20024;-87
2022/05/18 12:16:31;;;;;;;10.32;5.00;;;30.30;91.70;;;;;;6153373;23;20450;-88
2022/05/18 12:19:14;;;;;;;10.70;4.78;;;30.20;92.00;;;;;;6150692;23;20014;-89
2022/05/18 12:21:48;;;;;;;;;;;30.60;91.70;;;;;;6155321;23;20446;-89
2022/05/18 12:24:14;;;;;;;8.70;3.25;;;30.70;92.00;;;;;;6163874;23;19940;-89
2022/05/18 12:26:45;;;;;;;9.00;4.00;;;30.90;91.80;;;;;;6153779;23;20025;-87
2022/05/18 12:29:15;;;;;;;10.68;4.00;;;31.00;90.60;;;;;;6153935;23;20017;-89
2022/05/18 12:31:42;;;;;;;8.77;4.15;;;31.00;91.00;;;;;;6152811;23;20072;-89
2022/05/18 12:34:14;;;;;;;10.77;3.97;;;31.10;90.80;;;;;;6153228;23;20444;-88
2022/05/18 12:36:50;;;;;;;9.43;3.80;;;31.00;89.30;;;;;;6152292;23;20028;-88
2022/05/18 12:39:23;;;;;;;9.23;3.90;;;31.40;86.50;;;;;;6155278;23;20013;-88
2022/05/18 12:41:56;;;;;;;9.25;3.70;;;31.40;88.20;;;;;;6153231;23;20020;-90
2022/05/18 12:44:55;;;;;;;10.18;3.60;;;31.60;88.10;;;;;;6152862;23;20010;-87
2022/05/18 12:47:39;;;;;;;9.40;3.95;;;31.60;87.80;;;;;;6134212;23;20022;-88
2022/05/18 12:50:30;;;;;;;9.30;3.78;;;31.10;87.40;;;;;;6153725;23;20315;-84
2022/05/18 12:52:59;;;;;;;11.10;4.35;;;30.70;87.60;;;;;;6154776;23;20018;-83
2022/05/18 12:55:39;;;;;;;11.80;4.50;;;30.40;88.40;;;;;;6154399;23;20450;-84
2022/05/18 12:58:10;;;;;;;10.98;5.05;;;30.10;89.00;;;;;;6154183;23;20014;-83
2022/05/18 13:00:42;;;;;;;10.30;4.30;;;29.90;88.90;;;;;;6154711;23;20021;-84
2022/05/18 13:03:10;;;;;;;10.38;5.28;;;30.10;90.50;;;;;;6154928;23;20045;-84
2022/05/18 13:05:41;;;;;;;10.77;4.70;;;30.40;90.30;;;;;;6154134;23;20025;-84
2022/05/18 13:08:16;;;;;;;9.40;4.13;;;30.80;90.40;;;;;;6155052;23;20036;-84
2022/05/18 13:11:09;;;;;;;10.93;4.60;;;31.20;88.20;;;;;;6153444;23;20504;-84
2022/05/18 13:14:06;;;;;;;9.82;4.20;;;31.30;85.60;;;;;;6154377;23;20320;-84
2022/05/18 13:16:37;;;;;;;10.32;4.90;;;31.30;87.30;;;;;;6155221;23;20056;-85
2022/05/18 13:19:14;;;;;;;10.50;4.28;;;31.10;85.70;;;;;;6151582;23;20100;-83
2022/05/18 13:21:53;;;;;;;9.98;4.10;;;31.00;86.40;;;;;;6154241;23;20031;-83
2022/05/18 13:24:31;;;;;;;10.63;4.72;;;30.70;84.80;;;;;;6155216;23;20049;-84
2022/05/18 13:27:03;;;;;;;10.75;4.55;;;30.40;86.50;;;;;;6152366;23;20434;-84
2022/05/18 13:29:30;;;;;;;10.52;4.90;;;30.40;87.60;;;;;;6154713;23;20018;-84
2022/05/18 13:32:01;;;;;;;10.32;5.38;;;30.30;87.60;;;;;;6155541;23;20464;-84
2022/05/18 13:34:49;;;;;;;12.27;6.10;;;30.30;88.00;;;;;;6155273;23;20005;-84
2022/05/18 13:37:15;;;;;;;12.32;6.05;;;30.40;88.30;;;;;;6156418;23;20063;-84